createdAt,value
2022-09-22T00:01:14.857Z,101985.88
2022-09-22T00:03:43.619Z,101992.16
2022-09-22T00:06:13.231Z,101983.13
2022-09-22T00:08:41.925Z,101983.13
2022-09-22T00:11:13.888Z,101978.72
2022-09-22T00:13:42.336Z,101988.59
2022-09-22T00:16:11.101Z,101986.91
2022-09-22T00:18:39.092Z,101987.97
2022-09-22T00:21:09.246Z,101991.53
2022-09-22T00:23:38.427Z,101989.63
2022-09-22T00:26:07.968Z,101987.97
2022-09-22T00:28:38.066Z,101984.59
2022-09-22T00:31:07.117Z,101987.34
2022-09-22T00:33:34.977Z,101990.91
2022-09-22T00:36:03.703Z,101988.19
2022-09-22T00:38:31.597Z,101997.22
2022-09-22T00:41:00.236Z,101988.19
2022-09-22T00:43:30.119Z,101982.72
2022-09-22T00:46:01.226Z,101979.16
2022-09-22T00:48:29.788Z,101979.16
2022-09-22T00:50:57.728Z,101982.72
2022-09-22T00:53:26.555Z,101973.88
2022-09-22T00:55:56.818Z,101977.25
2022-09-22T00:58:27.946Z,101978.31
2022-09-22T01:00:55.846Z,101980.00
2022-09-22T01:03:29.867Z,101979.16
2022-09-22T01:06:01.527Z,101978.09
2022-09-22T01:08:29.715Z,101973.47
2022-09-22T01:10:57.556Z,101972.63
2022-09-22T01:13:28.205Z,101970.75
2022-09-22T01:16:06.733Z,101968.22
2022-09-22T01:18:43.077Z,101958.16
2022-09-22T01:21:33.637Z,101957.31
2022-09-22T01:27:40.210Z,101958.34
2022-09-22T01:30:27.523Z,101957.31
2022-09-22T01:33:04.052Z,101947.44
2022-09-22T01:35:33.603Z,101946.59
2022-09-22T01:38:05.853Z,101935.88
2022-09-22T01:40:35.510Z,101937.78
2022-09-22T01:43:08.859Z,101942.59
2022-09-22T01:45:38.052Z,101938.81
2022-09-22T01:48:11.128Z,101906.06
2022-09-22T01:50:40.997Z,101939.66
2022-09-22T01:53:11.546Z,101945.31
2022-09-22T01:55:40.403Z,101894.91
2022-09-22T01:58:09.719Z,101935.06
2022-09-22T02:00:40.205Z,101939.88
2022-09-22T02:03:09.450Z,101927.69
2022-09-22T02:05:38.298Z,101937.78
2022-09-22T02:08:09.961Z,101928.75
2022-09-22T02:10:39.735Z,101932.31
2022-09-22T02:13:07.870Z,101938.59
2022-09-22T02:15:52.827Z,101932.09
2022-09-22T02:18:24.048Z,101920.97
2022-09-22T02:20:52.001Z,101932.31
2022-09-22T02:23:20.161Z,101924.13
2022-09-22T02:25:48.043Z,101931.69
2022-09-22T02:28:16.962Z,101916.97
2022-09-22T02:30:54.410Z,101928.75
2022-09-22T02:33:38.110Z,101919.06
2022-09-22T02:36:13.443Z,101902.47
2022-09-22T02:38:43.875Z,101919.72
2022-09-22T02:41:12.825Z,101910.88
2022-09-22T02:43:42.916Z,101874.13
2022-09-22T02:46:15.200Z,101906.47
2022-09-22T02:48:46.433Z,101913.41
2022-09-22T02:51:14.840Z,101911.28
2022-09-22T02:53:42.963Z,101910.69
2022-09-22T02:56:10.864Z,101906.47
2022-09-22T02:58:38.706Z,101905.63
2022-09-22T03:01:06.831Z,101902.88
2022-09-22T03:03:35.060Z,101905.63
2022-09-22T03:06:04.323Z,101901.00
2022-09-22T03:08:32.210Z,101901.84
2022-09-22T03:11:00.107Z,101895.53
2022-09-22T03:13:28.247Z,101899.13
2022-09-22T03:15:56.182Z,101898.06
2022-09-22T03:18:24.081Z,101901.44
2022-09-22T03:20:51.940Z,101895.75
2022-09-22T03:23:21.448Z,101893.03
2022-09-22T03:25:49.424Z,101889.25
2022-09-22T03:28:17.333Z,101894.72
2022-09-22T03:30:45.295Z,101890.09
2022-09-22T03:33:13.449Z,101893.88
2022-09-22T03:35:41.269Z,101892.81
2022-09-22T03:38:09.129Z,101888.22
2022-09-22T03:40:38.391Z,101883.59
2022-09-22T03:43:06.655Z,101894.53
2022-09-22T03:45:34.485Z,101886.31
2022-09-22T03:48:02.756Z,101883.59
2022-09-22T03:50:30.623Z,101883.59
2022-09-22T03:52:58.778Z,101880.03
2022-09-22T03:55:26.758Z,101882.94
2022-09-22T03:57:56.008Z,101883.59
2022-09-22T04:00:24.102Z,101880.88
2022-09-22T04:02:52.504Z,101883.59
2022-09-22T04:05:20.422Z,101887.16
2022-09-22T04:07:48.420Z,101883.41
2022-09-22T04:10:16.349Z,101876.25
2022-09-22T04:12:44.484Z,101866.81
2022-09-22T04:15:13.820Z,101876.44
2022-09-22T04:17:41.654Z,101870.16
2022-09-22T04:20:11.365Z,101871.00
2022-09-22T04:22:39.497Z,101860.28
2022-09-22T04:25:08.846Z,101864.50
2022-09-22T04:27:37.082Z,101869.94
2022-09-22T04:30:07.093Z,101870.78
2022-09-22T04:32:36.448Z,101870.78
2022-09-22T04:35:04.343Z,101867.00
2022-09-22T04:37:32.202Z,101868.66
2022-09-22T04:40:00.308Z,101867.84
2022-09-22T04:42:28.121Z,101864.06
2022-09-22T04:44:57.180Z,101864.91
2022-09-22T04:47:25.070Z,101860.28
2022-09-22T04:49:54.655Z,101867.63
2022-09-22T04:52:22.548Z,101868.66
2022-09-22T04:54:50.733Z,101867.84
2022-09-22T04:57:20.525Z,101864.28
2022-09-22T04:59:48.583Z,101866.16
2022-09-22T05:02:16.460Z,101867.00
2022-09-22T05:04:44.595Z,101874.13
2022-09-22T05:07:14.003Z,101872.47
2022-09-22T05:09:41.906Z,101875.22
2022-09-22T05:12:09.786Z,101869.75
2022-09-22T05:14:37.952Z,101873.53
2022-09-22T05:17:06.242Z,101869.94
2022-09-22T05:19:34.148Z,101871.00
2022-09-22T05:22:01.962Z,101871.00
2022-09-22T05:24:31.969Z,101875.59
2022-09-22T05:26:59.983Z,101875.81
2022-09-22T05:29:29.214Z,101869.09
2022-09-22T05:31:57.244Z,101873.06
2022-09-22T05:34:25.807Z,101876.66
2022-09-22T05:36:55.139Z,101878.34
2022-09-22T05:39:24.427Z,101882.53
2022-09-22T05:41:53.737Z,101883.59
2022-09-22T05:44:23.596Z,101885.28
2022-09-22T05:46:51.466Z,101888.84
2022-09-22T05:49:19.271Z,101882.56
2022-09-22T05:51:47.130Z,101884.44
2022-09-22T05:54:16.001Z,101876.84
2022-09-22T05:56:45.925Z,101886.97
2022-09-22T05:59:15.196Z,101880.66
2022-09-22T06:01:43.218Z,101881.72
2022-09-22T06:04:11.334Z,101883.41
2022-09-22T06:06:39.234Z,101884.44
2022-09-22T06:09:07.136Z,101884.44
2022-09-22T06:11:35.029Z,101885.28
2022-09-22T06:14:03.334Z,101886.31
2022-09-22T06:16:33.097Z,101880.03
2022-09-22T06:19:00.984Z,101883.78
2022-09-22T06:21:28.862Z,101876.66
2022-09-22T06:23:57.537Z,101881.06
2022-09-22T06:26:25.549Z,101884.84
2022-09-22T06:28:53.578Z,101878.53
2022-09-22T06:31:21.448Z,101887.56
2022-09-22T06:33:51.147Z,101888.66
2022-09-22T06:36:24.006Z,101884.84
2022-09-22T06:38:52.915Z,101887.56
2022-09-22T06:41:20.832Z,101889.44
2022-09-22T06:43:50.213Z,101886.72
2022-09-22T06:46:19.501Z,101885.06
2022-09-22T06:48:51.785Z,101888.84
2022-09-22T06:51:19.656Z,101886.97
2022-09-22T06:53:51.864Z,101887.56
2022-09-22T06:56:20.680Z,101888.41
2022-09-22T06:59:08.970Z,101885.69
2022-09-22T07:01:37.484Z,101888.22
2022-09-22T07:04:06.904Z,101883.78
2022-09-22T07:06:35.834Z,101876.66
2022-09-22T07:09:03.903Z,101874.75
2022-09-22T07:11:34.230Z,101881.06
2022-09-22T07:14:04.472Z,101877.50
2022-09-22T07:16:32.426Z,101883.78
2022-09-22T07:19:00.374Z,101882.09
2022-09-22T07:21:32.953Z,101841.81
2022-09-22T07:24:01.115Z,101876.88
2022-09-22T07:26:32.499Z,101888.66
2022-09-22T07:29:00.875Z,101891.38
2022-09-22T07:31:29.656Z,101887.56
2022-09-22T07:34:00.227Z,101885.91
2022-09-22T07:36:30.499Z,101886.13
2022-09-22T07:38:58.997Z,101890.53
2022-09-22T07:41:28.469Z,101889.88
2022-09-22T07:43:57.669Z,101885.28
2022-09-22T07:46:25.585Z,101888.00
2022-09-22T07:48:53.501Z,101887.16
2022-09-22T07:51:22.107Z,101889.69
2022-09-22T07:53:53.671Z,101885.91
2022-09-22T07:56:23.639Z,101876.88
2022-09-22T07:58:52.136Z,101880.47
2022-09-22T08:01:21.542Z,101873.31
2022-09-22T08:03:50.522Z,101882.53
2022-09-22T08:06:20.043Z,101885.06
2022-09-22T08:08:52.452Z,101883.19
2022-09-22T08:11:22.669Z,101871.41
2022-09-22T08:13:52.616Z,101878.34
2022-09-22T08:16:22.516Z,101879.63
2022-09-22T08:18:56.564Z,101877.50
2022-09-22T08:21:24.476Z,101872.28
2022-09-22T08:23:53.097Z,101875.81
2022-09-22T08:26:22.871Z,101882.09
2022-09-22T08:28:52.397Z,101878.34
2022-09-22T08:31:21.141Z,101872.28
2022-09-22T08:33:49.230Z,101877.72
2022-09-22T08:36:17.222Z,101869.94
2022-09-22T08:38:48.596Z,101871.63
2022-09-22T08:41:20.176Z,101871.41
2022-09-22T08:43:55.387Z,101871.41
2022-09-22T08:46:28.218Z,101869.53
2022-09-22T08:49:14.402Z,101879.38
2022-09-22T08:51:53.647Z,101876.03
2022-09-22T08:54:23.176Z,101877.72
2022-09-22T08:56:57.541Z,101879.81
2022-09-22T08:59:30.190Z,101870.38
2022-09-22T09:02:05.042Z,101874.16
2022-09-22T09:04:45.509Z,101880.47
2022-09-22T09:07:16.426Z,101880.22
2022-09-22T09:09:52.215Z,101871.19
2022-09-22T09:12:37.236Z,101876.66
2022-09-22T09:15:21.579Z,101887.56
2022-09-22T09:17:49.479Z,101879.38
2022-09-22T09:20:18.640Z,101875.59
2022-09-22T09:22:49.392Z,101881.06
2022-09-22T09:25:24.606Z,101838.22
2022-09-22T09:27:54.704Z,101869.31
2022-09-22T09:30:23.976Z,101879.38
2022-09-22T09:32:52.950Z,101862.78
2022-09-22T09:35:26.562Z,101875.59
2022-09-22T09:37:55.333Z,101867.41
2022-09-22T09:40:23.625Z,101867.41
2022-09-22T09:42:56.661Z,101864.69
2022-09-22T09:45:27.754Z,101857.53
2022-09-22T09:48:12.038Z,101863.00
2022-09-22T09:50:39.898Z,101861.13
2022-09-22T09:53:12.067Z,101836.78
2022-09-22T09:55:40.044Z,101846.63
2022-09-22T09:58:11.991Z,101844.75
2022-09-22T10:00:56.305Z,101837.59
2022-09-22T10:03:28.022Z,101841.16
2022-09-22T10:06:00.585Z,101835.69
2022-09-22T10:08:28.513Z,101834.88
2022-09-22T10:10:56.752Z,101834.66
2022-09-22T10:13:34.881Z,101823.75
2022-09-22T10:16:26.255Z,101831.94
2022-09-22T10:19:05.031Z,101820.16
2022-09-22T10:21:33.295Z,101819.13
2022-09-22T10:24:01.745Z,101815.16
2022-09-22T10:26:30.339Z,101816.19
2022-09-22T10:29:09.450Z,101813.47
2022-09-22T10:31:39.009Z,101817.88
2022-09-22T10:34:07.754Z,101806.97
2022-09-22T10:36:35.601Z,101809.88
2022-09-22T10:39:03.483Z,101810.53
2022-09-22T10:41:34.223Z,101808.84
2022-09-22T10:44:21.221Z,101808.84
2022-09-22T10:47:06.242Z,101791.63
2022-09-22T10:49:42.620Z,101797.94
2022-09-22T10:52:14.285Z,101799.81
2022-09-22T10:55:00.062Z,101792.22
2022-09-22T10:57:35.536Z,101792.22
2022-09-22T11:00:11.240Z,101785.13
2022-09-22T11:03:18.240Z,101784.03
2022-09-22T11:06:22.109Z,101787.63
2022-09-22T11:09:14.516Z,101775.03
2022-09-22T11:12:03.332Z,101781.53
2022-09-22T11:14:38.427Z,101766.22
2022-09-22T11:17:11.529Z,101785.13
2022-09-22T11:19:47.998Z,101762.44
2022-09-22T11:22:27.358Z,101769.59
2022-09-22T11:25:04.510Z,101768.50
2022-09-22T11:27:37.674Z,101758.66
2022-09-22T11:30:20.471Z,101771.22
2022-09-22T11:33:08.567Z,101763.88
2022-09-22T11:35:43.595Z,101743.78
2022-09-22T11:38:22.355Z,101757.59
2022-09-22T11:41:00.245Z,101752.97
2022-09-22T11:43:38.312Z,101747.50
2022-09-22T11:46:09.126Z,101746.66
2022-09-22T11:48:44.661Z,101740.16
2022-09-22T11:51:27.729Z,101733.25
2022-09-22T11:54:03.766Z,101733.66
2022-09-22T11:56:39.308Z,101697.97
2022-09-22T11:59:20.389Z,101733.66
2022-09-22T12:01:48.302Z,101723.56
2022-09-22T12:04:22.866Z,101727.75
2022-09-22T12:06:52.915Z,101724.81
2022-09-22T12:09:29.621Z,101723.13
2022-09-22T12:11:59.550Z,101721.25
2022-09-22T12:14:28.400Z,101717.66
2022-09-22T12:16:58.781Z,101685.63
2022-09-22T12:19:30.651Z,101690.81
2022-09-22T12:22:05.851Z,101699.41
2022-09-22T12:24:34.829Z,101711.38
2022-09-22T12:27:11.278Z,101700.25
2022-09-22T12:29:39.608Z,101672.13
2022-09-22T12:32:07.829Z,101664.56
2022-09-22T12:34:37.585Z,101649.69
2022-09-22T12:37:13.914Z,101687.00
2022-09-22T12:39:42.532Z,101681.34
2022-09-22T12:42:20.010Z,101676.47
2022-09-22T12:44:50.274Z,101669.97
2022-09-22T12:47:20.235Z,101671.66
2022-09-22T12:49:51.799Z,101656.53
2022-09-22T12:53:04.159Z,101675.63
2022-09-22T12:55:38.402Z,101672.06
2022-09-22T12:58:44.905Z,101666.81
2022-09-22T13:01:35.093Z,101665.34
2022-09-22T13:04:21.228Z,101670.22
2022-09-22T13:06:56.298Z,101663.91
2022-09-22T13:09:27.016Z,101629.94
2022-09-22T13:12:26.096Z,101663.44
2022-09-22T13:15:19.921Z,101640.38
2022-09-22T13:17:49.399Z,101648.56
2022-09-22T13:20:22.737Z,101650.44
2022-09-22T13:22:51.109Z,101625.09
2022-09-22T13:25:31.222Z,101647.31
2022-09-22T13:28:09.195Z,101648.94
2022-09-22T13:30:37.636Z,101644.56
2022-09-22T13:33:05.930Z,101643.72
2022-09-22T13:35:34.958Z,101638.88
2022-09-22T13:38:03.295Z,101633.25
2022-09-22T13:40:34.927Z,101594.03
2022-09-22T13:43:06.586Z,101631.34
2022-09-22T13:45:34.489Z,101595.91
2022-09-22T13:48:08.499Z,101589.44
2022-09-22T13:50:40.735Z,101625.47
2022-09-22T13:53:08.587Z,101626.31
2022-09-22T13:55:38.291Z,101620.00
2022-09-22T13:58:13.529Z,101592.75
2022-09-22T14:01:08.737Z,101607.59
2022-09-22T14:03:36.195Z,101606.97
2022-09-22T14:06:04.092Z,101605.91
2022-09-22T14:08:32.480Z,101603.19
2022-09-22T14:11:02.173Z,101597.53
2022-09-22T14:13:40.450Z,101597.53
2022-09-22T14:16:13.644Z,101594.78
2022-09-22T14:18:43.165Z,101595.63
2022-09-22T14:21:12.069Z,101591.84
2022-09-22T14:23:44.366Z,101591.00
2022-09-22T14:26:33.464Z,101591.84
2022-09-22T14:29:09.277Z,101583.66
2022-09-22T14:31:38.828Z,101584.50
2022-09-22T14:34:08.869Z,101578.19
2022-09-22T14:36:37.935Z,101579.88
2022-09-22T14:39:10.293Z,101574.44
2022-09-22T14:41:40.764Z,101576.31
2022-09-22T14:44:28.099Z,101577.97
2022-09-22T14:46:56.582Z,101568.13
2022-09-22T14:49:37.396Z,101569.78
2022-09-22T14:52:07.444Z,101558.84
2022-09-22T14:54:35.956Z,101567.88
2022-09-22T14:57:07.698Z,101557.81
2022-09-22T14:59:54.208Z,101549.84
2022-09-22T15:02:34.237Z,101558.84
2022-09-22T15:05:03.418Z,101537.50
2022-09-22T15:07:31.538Z,101549.00
2022-09-22T15:10:00.158Z,101551.75
2022-09-22T15:12:38.072Z,101549.00
2022-09-22T15:15:16.742Z,101552.59
2022-09-22T15:18:02.337Z,101541.66
2022-09-22T15:20:34.988Z,101545.44
2022-09-22T15:23:02.964Z,101539.13
2022-09-22T15:25:30.845Z,101539.97
2022-09-22T15:28:00.277Z,101537.25
2022-09-22T15:30:32.169Z,101536.41
2022-09-22T15:33:03.800Z,101528.22
2022-09-22T15:35:34.503Z,101528.00
2022-09-22T15:38:02.382Z,101528.00
2022-09-22T15:40:30.648Z,101521.91
2022-09-22T15:43:13.297Z,101521.91
2022-09-22T15:45:47.897Z,101513.94
2022-09-22T15:48:24.806Z,101517.50
2022-09-22T15:50:52.999Z,101515.00
2022-09-22T15:53:20.881Z,101512.25
2022-09-22T15:55:49.023Z,101508.69
2022-09-22T15:58:18.524Z,101508.69
2022-09-22T16:00:47.198Z,101505.16
2022-09-22T16:03:16.662Z,101505.34
2022-09-22T16:05:44.990Z,101507.88
2022-09-22T16:08:15.256Z,101502.41
2022-09-22T16:10:44.267Z,101505.97
2022-09-22T16:13:13.006Z,101500.50
2022-09-22T16:15:42.288Z,101496.72
2022-09-22T16:18:10.258Z,101497.56
2022-09-22T16:20:38.446Z,101501.97
2022-09-22T16:23:07.419Z,101499.22
2022-09-22T16:25:35.319Z,101498.19
2022-09-22T16:28:03.720Z,101491.66
2022-09-22T16:30:31.575Z,101497.72
2022-09-22T16:33:01.959Z,101497.72
2022-09-22T16:35:30.121Z,101497.72
2022-09-22T16:37:58.032Z,101501.34
2022-09-22T16:40:26.281Z,101486.03
2022-09-22T16:42:54.219Z,101490.59
2022-09-22T16:45:42.181Z,101487.06
2022-09-22T16:48:11.475Z,101495.44
2022-09-22T16:50:39.397Z,101493.56
2022-09-22T16:53:11.180Z,101493.56
2022-09-22T16:55:39.049Z,101497.97
2022-09-22T16:58:08.451Z,101492.50
2022-09-22T17:00:36.806Z,101496.88
2022-09-22T17:03:05.046Z,101493.31
2022-09-22T17:05:35.274Z,101509.69
2022-09-22T17:08:06.631Z,101497.97
2022-09-22T17:10:35.728Z,101501.50
2022-09-22T17:13:05.309Z,101496.06
2022-09-22T17:15:35.834Z,101496.88
2022-09-22T17:18:04.404Z,101489.53
2022-09-22T17:20:32.275Z,101492.94
2022-09-22T17:23:01.562Z,101484.75
2022-09-22T17:25:29.431Z,101482.84
2022-09-22T17:27:57.904Z,101490.78
2022-09-22T17:30:26.294Z,101485.34
2022-09-22T17:32:54.192Z,101481.56
2022-09-22T17:35:22.060Z,101485.13
2022-09-22T17:37:52.189Z,101483.22
2022-09-22T17:40:21.945Z,101480.28
2022-09-22T17:42:50.063Z,101474.81
2022-09-22T17:45:18.111Z,101480.28
2022-09-22T17:48:03.418Z,101483.84
2022-09-22T17:50:48.974Z,101483.84
2022-09-22T17:53:34.290Z,101483.84
2022-09-22T17:56:05.618Z,101475.66
2022-09-22T17:58:33.951Z,101485.75
2022-09-22T18:01:01.957Z,101487.44
2022-09-22T18:03:30.112Z,101483.63
2022-09-22T18:05:58.326Z,101481.72
2022-09-22T18:08:26.297Z,101488.03
2022-09-22T18:10:54.407Z,101488.03
2022-09-22T18:13:24.357Z,101485.28
2022-09-22T18:15:52.664Z,101494.13
2022-09-22T18:18:20.583Z,101488.66
2022-09-22T18:20:48.457Z,101489.50
2022-09-22T18:23:18.003Z,101485.94
2022-09-22T18:25:46.392Z,101482.34
2022-09-22T18:28:14.307Z,101485.94
2022-09-22T18:30:43.646Z,101490.53
2022-09-22T18:33:12.945Z,101485.09
2022-09-22T18:35:45.457Z,101494.13
2022-09-22T18:38:14.066Z,101482.34
2022-09-22T18:40:42.186Z,101488.66
2022-09-22T18:43:10.555Z,101486.75
2022-09-22T18:45:38.425Z,101490.34
2022-09-22T18:48:07.728Z,101487.59
2022-09-22T18:50:35.780Z,101493.06
2022-09-22T18:53:03.971Z,101483.78
2022-09-22T18:55:32.462Z,101489.25
2022-09-22T18:58:01.038Z,101494.72
2022-09-22T19:00:28.923Z,101477.53
2022-09-22T19:02:57.512Z,101485.47
2022-09-22T19:05:28.331Z,101483.78
2022-09-22T19:07:58.426Z,101483.78
2022-09-22T19:10:26.288Z,101483.78
2022-09-22T19:12:54.579Z,101481.91
2022-09-22T19:15:23.635Z,101482.16
2022-09-22T19:17:51.495Z,101482.97
2022-09-22T19:20:20.943Z,101477.72
2022-09-22T19:22:50.976Z,101482.97
2022-09-22T19:25:20.062Z,101473.94
2022-09-22T19:27:48.047Z,101475.00
2022-09-22T19:30:19.441Z,101477.72
2022-09-22T19:32:50.301Z,101475.00
2022-09-22T19:35:18.191Z,101480.47
2022-09-22T19:37:46.226Z,101474.16
2022-09-22T19:40:18.667Z,101481.50
2022-09-22T19:42:46.836Z,101477.09
2022-09-22T19:45:14.877Z,101473.31
2022-09-22T19:47:42.819Z,101469.75
2022-09-22T19:50:10.782Z,101472.47
2022-09-22T19:52:38.779Z,101469.75
2022-09-22T19:55:07.756Z,101479.63
2022-09-22T19:57:41.092Z,101476.06
2022-09-22T20:00:13.116Z,101440.69
2022-09-22T20:02:42.145Z,101476.06
2022-09-22T20:05:22.504Z,101472.47
2022-09-22T20:07:50.720Z,101476.06
2022-09-22T20:10:19.199Z,101468.31
2022-09-22T20:12:48.558Z,101477.09
2022-09-22T20:15:16.489Z,101471.63
2022-09-22T20:17:45.907Z,101464.13
2022-09-22T20:20:14.334Z,101466.38
2022-09-22T20:22:42.719Z,101472.94
2022-09-22T20:25:20.081Z,101434.81
2022-09-22T20:27:49.503Z,101465.78
2022-09-22T20:30:17.719Z,101466.84
2022-09-22T20:32:46.619Z,101462.22
2022-09-22T20:35:15.452Z,101462.22
2022-09-22T20:37:43.395Z,101470.41
2022-09-22T20:40:13.245Z,101463.28
2022-09-22T20:42:41.286Z,101456.97
2022-09-22T20:45:13.637Z,101456.97
2022-09-22T20:47:41.795Z,101453.41
2022-09-22T20:50:11.885Z,101448.78
2022-09-22T20:52:40.849Z,101450.69
2022-09-22T20:55:10.216Z,101455.28
2022-09-22T20:57:38.962Z,101443.56
2022-09-22T21:00:09.068Z,101451.75
2022-09-22T21:02:38.506Z,101448.19
2022-09-22T21:05:06.811Z,101445.22
2022-09-22T21:07:34.847Z,101449.84
2022-09-22T21:10:20.267Z,101454.50
2022-09-22T21:12:48.292Z,101449.03
2022-09-22T21:15:16.371Z,101450.09
2022-09-22T21:17:47.998Z,101449.84
2022-09-22T21:20:15.994Z,101449.25
2022-09-22T21:22:44.419Z,101453.66
2022-09-22T21:25:12.395Z,101443.78
2022-09-22T21:27:40.381Z,101443.13
2022-09-22T21:30:10.607Z,101437.47
2022-09-22T21:32:39.353Z,101445.69
2022-09-22T21:35:10.480Z,101441.25
2022-09-22T21:37:38.432Z,101442.94
2022-09-22T21:40:07.489Z,101449.47
2022-09-22T21:42:36.284Z,101445.84
2022-09-22T21:45:05.019Z,101444.19
2022-09-22T21:47:32.976Z,101445.00
2022-09-22T21:50:00.851Z,101444.19
2022-09-22T21:52:30.102Z,101437.91
2022-09-22T21:54:58.270Z,101438.72
2022-09-22T21:57:26.178Z,101437.06
2022-09-22T21:59:56.762Z,101446.09
2022-09-22T22:02:24.787Z,101441.44
2022-09-22T22:04:52.926Z,101438.97
2022-09-22T22:07:20.931Z,101428.88
2022-09-22T22:09:50.229Z,101433.50
2022-09-22T22:12:18.090Z,101425.31
2022-09-22T22:14:47.152Z,101419.00
2022-09-22T22:17:15.004Z,101428.03
2022-09-22T22:19:42.908Z,101421.75
2022-09-22T22:22:11.168Z,101424.47
2022-09-22T22:24:42.450Z,101416.28
2022-09-22T22:27:13.640Z,101416.28
2022-09-22T22:29:41.501Z,101414.38
2022-09-22T22:32:10.550Z,101413.53
2022-09-22T22:34:38.884Z,101411.66
2022-09-22T22:37:10.039Z,101400.56
2022-09-22T22:39:37.923Z,101411.03
2022-09-22T22:42:06.981Z,101404.72
2022-09-22T22:44:36.789Z,101405.56
2022-09-22T22:47:05.204Z,101411.03
2022-09-22T22:49:33.551Z,101402.22
2022-09-22T22:52:01.508Z,101403.88
2022-09-22T22:54:29.630Z,101401.41
2022-09-22T22:56:57.452Z,101399.72
2022-09-22T22:59:25.367Z,101404.94
2022-09-22T23:01:54.661Z,101397.00
2022-09-22T23:04:24.018Z,101403.28
2022-09-22T23:06:51.858Z,101407.06
2022-09-22T23:09:19.707Z,101403.50
2022-09-22T23:11:47.625Z,101405.41
2022-09-22T23:14:16.145Z,101405.19
2022-09-22T23:16:45.057Z,101398.03
2022-09-22T23:19:14.963Z,101404.34
2022-09-22T23:21:42.877Z,101400.78
2022-09-22T23:24:15.299Z,101399.94
2022-09-22T23:26:43.405Z,101392.81
2022-09-22T23:29:11.640Z,101395.53
2022-09-22T23:31:39.497Z,101389.22
2022-09-22T23:34:07.687Z,101376.41
2022-09-22T23:36:37.072Z,101378.31
2022-09-22T23:39:05.186Z,101379.16
2022-09-22T23:41:33.265Z,101376.41
2022-09-22T23:44:02.877Z,101376.41
2022-09-22T23:46:30.864Z,101379.16
2022-09-22T23:49:00.203Z,101370.97
2022-09-22T23:51:28.365Z,101364.91
2022-09-22T23:53:57.887Z,101363.03
2022-09-22T23:56:25.822Z,101369.28
2022-09-22T23:58:53.679Z,101367.41
